Time;durP1;ratioP1;P1;durP2;ratioP2;P2;SDS_P1;SDS_P2;PMS_P1;PMS_P2;Temp;Humidity;BMP_temperature;BMP_pressure;BME280_temperature;BME280_humidity;BME280_pressure;Samples;Min_cycle;Max_cycle;Signal;HPM_P1;HPM_P2
2024/02/17 00:00:48;;;;;;;0.68;0.68;;;;;;;5.29;100.00;101791.22;5053134;28;20512;-82
2024/02/17 00:03:17;;;;;;;4.95;2.28;;;;;;;4.96;100.00;101681.34;5053228;28;20029;-81
2024/02/17 00:05:43;;;;;;;2.08;1.98;;;;;;;5.34;100.00;101673.38;5058960;28;20763;-86
2024/02/17 00:08:08;;;;;;;1.23;1.20;;;;;;;5.34;100.00;101707.22;5055808;28;20052;-84
2024/02/17 00:10:34;;;;;;;14.75;12.23;;;;;;;5.86;100.00;101780.59;5059515;28;20344;-80
2024/02/17 00:13:00;;;;;;;0.85;0.85;;;;;;;5.42;100.00;101679.81;5063807;28;20087;-80
2024/02/17 00:15:25;;;;;;;1.77;1.67;;;;;;;5.34;100.00;101795.69;5059195;28;20135;-83
2024/02/17 00:17:51;;;;;;;4.22;3.72;;;;;;;5.43;100.00;101793.50;5058623;28;20116;-82
2024/02/17 00:20:17;;;;;;;0.32;0.32;;;;;;;5.08;100.00;101788.56;5060906;28;20668;-82
2024/02/17 00:22:43;;;;;;;0.30;0.30;;;;;;;4.54;100.00;101694.25;5062374;28;20051;-81
2024/02/17 00:25:09;;;;;;;2.17;2.08;;;;;;;5.52;100.00;101803.44;5065163;28;20040;-82
2024/02/17 00:27:35;;;;;;;3.90;3.72;;;;;;;5.70;100.00;101802.50;5063131;28;20063;-81
2024/02/17 00:30:05;;;;;;;0.65;0.65;;;;;;;5.29;100.00;101688.81;5063254;28;20020;-81
2024/02/17 00:32:30;;;;;;;4.35;3.50;;;;;;;4.60;100.00;101683.22;5044821;28;20052;-80
2024/02/17 00:34:56;;;;;;;1.75;1.52;;;;;;;5.13;100.00;101800.84;5058060;28;20050;-84
2024/02/17 00:37:21;;;;;;;5.43;4.97;;;;;;;4.99;100.00;101771.66;5063987;28;20047;-81
2024/02/17 00:39:47;;;;;;;0.40;0.40;;;;;;;4.92;100.00;101765.28;5054670;28;20057;-81
2024/02/17 00:42:14;;;;;;;0.40;0.40;;;;;;;4.85;100.00;101714.69;5062080;28;20111;-80
2024/02/17 00:44:40;;;;;;;0.65;0.65;;;;;;;4.92;100.00;101761.78;5061410;28;20036;-81
2024/02/17 00:47:06;;;;;;;0.40;0.40;;;;;;;4.18;100.00;101620.72;5052412;28;20865;-84
2024/02/17 00:49:31;;;;;;;1.42;1.33;;;;;;;5.19;100.00;101804.63;5058038;28;20123;-83
2024/02/17 00:51:57;;;;;;;0.80;0.80;;;;;;;5.16;100.00;101803.59;5061773;28;20182;-83
2024/02/17 00:54:23;;;;;;;2.17;2.03;;;;;;;5.14;100.00;101780.09;5064941;28;20039;-85
2024/02/17 00:56:48;;;;;;;1.27;1.17;;;;;;;4.51;100.00;101704.47;5063682;28;20687;-77
2024/02/17 00:59:14;;;;;;;0.93;0.93;;;;;;;4.98;100.00;101801.94;5055588;28;20515;-82
2024/02/17 01:01:42;;;;;;;0.85;0.85;;;;;;;4.39;100.00;101684.03;5057724;28;20135;-81
2024/02/17 01:04:08;;;;;;;0.30;0.30;;;;;;;4.40;100.00;101711.81;5051798;28;20044;-80
2024/02/17 01:06:34;;;;;;;0.30;0.30;;;;;;;4.86;100.00;101797.06;5062157;28;20053;-78
2024/02/17 01:08:59;;;;;;;1.75;1.65;;;;;;;4.87;100.00;101800.59;5053995;28;20040;-78
2024/02/17 01:11:25;;;;;;;0.50;0.45;;;;;;;4.28;100.00;101685.25;5053035;28;20057;-79
2024/02/17 01:13:50;;;;;;;1.13;1.13;;;;;;;4.10;100.00;101672.31;5055481;28;20075;-83
2024/02/17 01:16:16;;;;;;;0.40;0.40;;;;;;;4.17;100.00;101692.56;5048999;28;20049;-81
2024/02/17 01:18:42;;;;;;;16.30;4.30;;;;;;;4.73;100.00;101801.66;5052421;28;20116;-80
2024/02/17 01:21:07;;;;;;;2.75;2.63;;;;;;;4.33;100.00;101714.03;5059044;28;20062;-76
2024/02/17 01:23:33;;;;;;;2.95;2.75;;;;;;;5.05;100.00;101805.72;5063419;28;20032;-80
2024/02/17 01:25:59;;;;;;;4.00;3.72;;;;;;;4.96;100.00;101802.69;5060883;28;20057;-78
2024/02/17 01:28:24;;;;;;;1.95;1.85;;;;;;;4.31;100.00;101711.38;5060229;28;20095;-81
2024/02/17 01:30:50;;;;;;;3.47;3.33;;;;;;;4.68;100.00;101777.16;5056919;28;20045;-81
2024/02/17 01:33:15;;;;;;;0.40;0.40;;;;;;;5.05;100.00;101803.13;5051499;28;20064;-82
2024/02/17 01:35:41;;;;;;;1.30;1.25;;;;;;;4.64;100.00;101735.44;5057128;28;20063;-81
2024/02/17 01:38:08;;;;;;;0.32;0.32;;;;;;;4.16;100.00;101669.09;5053004;28;20087;-82
2024/02/17 01:40:36;;;;;;;0.30;0.30;;;;;;;4.82;100.00;101807.25;5057095;28;20133;-80
2024/02/17 01:43:05;;;;;;;2.28;2.17;;;;;;;4.93;100.00;101799.97;5052244;28;20059;-80
2024/02/17 01:45:31;;;;;;;0.68;0.68;;;;;;;4.88;100.00;101789.34;5056442;28;20359;-80
2024/02/17 01:47:57;;;;;;;0.30;0.30;;;;;;;4.25;100.00;101684.22;5067200;28;20040;-79
2024/02/17 01:50:22;;;;;;;0.80;0.80;;;;;;;4.29;100.00;101688.75;5071450;28;20474;-78
2024/02/17 01:52:49;;;;;;;3.25;3.15;;;;;;;4.78;100.00;101759.44;5073113;28;20102;-82
2024/02/17 01:55:16;;;;;;;2.47;2.28;;;;;;;4.99;100.00;101806.34;5077255;28;20144;-80
2024/02/17 01:57:43;;;;;;;0.65;0.65;;;;;;;4.93;100.00;101789.56;5066117;28;20476;-81
2024/02/17 02:00:10;;;;;;;0.85;0.85;;;;;;;4.75;100.00;101780.13;5059655;28;20028;-82
2024/02/17 02:02:38;;;;;;;0.65;0.65;;;;;;;3.78;100.00;101629.25;5061558;28;20061;-79
2024/02/17 02:05:04;;;;;;;0.50;0.50;;;;;;;4.35;100.00;101700.28;5050838;28;20195;-84
2024/02/17 02:07:30;;;;;;;0.30;0.30;;;;;;;4.82;100.00;101789.97;5060418;28;20416;-81
2024/02/17 02:09:55;;;;;;;1.75;1.67;;;;;;;4.64;100.00;101765.75;5058959;28;20040;-79
2024/02/17 02:12:22;;;;;;;1.65;1.58;;;;;;;4.25;100.00;101672.13;5046982;28;20036;-80
2024/02/17 02:15:10;;;;;;;1.67;1.58;;;;;;;4.88;100.00;101791.06;5054787;28;20033;-83
2024/02/17 02:17:37;;;;;;;5.90;5.38;;;;;;;4.81;100.00;101790.78;5060523;28;20057;-82
2024/02/17 02:20:04;;;;;;;0.75;0.75;;;;;;;4.10;100.00;101667.13;5056620;28;20053;-82
2024/02/17 02:22:31;;;;;;;3.03;2.08;;;;;;;4.62;100.00;101755.25;5055818;28;20668;-81
2024/02/17 02:24:59;;;;;;;0.35;0.35;;;;;;;4.31;100.00;101676.69;5056739;28;20048;-80
2024/02/17 02:27:27;;;;;;;0.60;0.60;;;;;;;4.70;100.00;101768.59;5058737;28;20043;-82
2024/02/17 02:29:55;;;;;;;0.30;0.30;;;;;;;4.74;100.00;101778.31;5063403;28;20024;-81
2024/02/17 02:32:25;;;;;;;2.22;2.05;;;;;;;4.81;100.00;101774.28;5062821;28;20716;-83
2024/02/17 02:34:51;;;;;;;3.45;3.25;;;;;;;4.74;100.00;101799.13;5054239;28;20049;-80
2024/02/17 02:37:17;;;;;;;0.90;0.90;;;;;;;4.76;100.00;101796.59;5051813;28;20122;-81
2024/02/17 02:39:42;;;;;;;5.63;5.00;;;;;;;4.75;100.00;101805.22;5052036;28;20052;-80
2024/02/17 02:42:08;;;;;;;1.73;1.63;;;;;;;4.18;100.00;101686.53;5058077;28;20067;-78
2024/02/17 02:44:34;;;;;;;3.03;2.80;;;;;;;4.03;100.00;101680.63;5053135;28;20045;-80
2024/02/17 02:46:59;;;;;;;2.15;1.95;;;;;;;4.09;100.00;101669.63;5055069;28;20057;-80
2024/02/17 02:49:25;;;;;;;2.78;2.58;;;;;;;4.47;100.00;101712.94;5059020;28;20048;-82
2024/02/17 02:51:50;;;;;;;0.90;0.85;;;;;;;4.93;100.00;101811.25;5057277;28;20068;-80
2024/02/17 02:54:18;;;;;;;1.17;1.08;;;;;;;4.32;100.00;101735.66;5059744;28;20821;-79
2024/02/17 02:56:45;;;;;;;3.30;3.13;;;;;;;4.67;100.00;101786.66;5065282;28;20071;-80
2024/02/17 02:59:10;;;;;;;0.40;0.40;;;;;;;4.11;100.00;101706.97;5064292;28;20048;-80
2024/02/17 03:01:36;;;;;;;1.05;1.00;;;;;;;4.85;100.00;101805.72;5059523;28;20041;-80
2024/02/17 03:04:01;;;;;;;2.33;2.22;;;;;;;4.08;100.00;101693.84;5064336;28;20045;-82
2024/02/17 03:06:29;;;;;;;0.30;0.30;;;;;;;4.30;100.00;101735.56;5059640;28;20059;-82
2024/02/17 03:08:55;;;;;;;3.28;3.13;;;;;;;4.69;100.00;101813.63;5066591;28;20039;-80
2024/02/17 03:11:20;;;;;;;1.50;1.40;;;;;;;4.63;100.00;101797.72;5062023;28;20049;-81
2024/02/17 03:13:46;;;;;;;2.67;2.47;;;;;;;4.95;100.00;101814.81;5057566;28;20053;-83
2024/02/17 03:16:22;;;;;;;0.70;0.70;;;;;;;4.38;100.00;101702.16;5064145;28;20052;-82
2024/02/17 03:18:47;;;;;;;2.53;2.42;;;;;;;5.21;100.00;101815.09;5063787;28;20138;-80
2024/02/17 03:21:13;;;;;;;0.70;0.50;;;;;;;5.21;100.00;101789.97;5062983;28;20488;-78
2024/02/17 03:23:38;;;;;;;2.85;2.65;;;;;;;5.44;100.00;101817.00;5064068;28;20473;-79
2024/02/17 03:26:05;;;;;;;3.65;3.55;;;;;;;4.71;100.00;101748.72;5064952;28;20044;-79
2024/02/17 03:28:33;;;;;;;1.98;1.45;;;;;;;4.80;100.00;101789.00;5065191;28;20127;-82
2024/02/17 03:30:59;;;;;;;1.67;1.58;;;;;;;4.52;100.00;101739.16;5065516;28;20137;-78
2024/02/17 03:33:25;;;;;;;2.38;2.20;;;;;;;4.68;100.00;101788.44;5060526;28;20044;-78
2024/02/17 03:35:52;;;;;;;3.15;2.95;;;;;;;4.20;100.00;101694.41;5064125;28;20417;-81
2024/02/17 03:38:18;;;;;;;0.20;0.20;;;;;;;4.52;100.00;101753.06;5061987;28;20128;-80
2024/02/17 03:40:44;;;;;;;23.98;22.02;;;;;;;4.10;100.00;101692.22;5065365;28;20045;-80
2024/02/17 03:43:09;;;;;;;0.40;0.40;;;;;;;4.20;100.00;101691.81;5063793;28;20158;-80
2024/02/17 03:45:35;;;;;;;7.72;6.97;;;;;;;4.39;100.00;101698.72;5065392;28;20069;-78
2024/02/17 03:48:01;;;;;;;1.65;1.52;;;;;;;4.85;100.00;101745.91;5052954;28;20035;-78
2024/02/17 03:50:27;;;;;;;24.58;22.63;;;;;;;5.43;100.00;101799.63;5060578;28;20136;-76
2024/02/17 03:52:53;;;;;;;0.50;0.50;;;;;;;4.92;100.00;101760.06;5054025;28;20519;-77
2024/02/17 03:55:18;;;;;;;7.53;7.13;;;;;;;4.67;100.00;101757.19;5061688;28;20041;-81
2024/02/17 03:57:44;;;;;;;0.73;0.73;;;;;;;4.84;100.00;101746.72;5056933;28;20055;-75
2024/02/17 04:00:13;;;;;;;1.13;1.02;;;;;;;4.93;100.00;101695.94;5062061;28;20028;-76
2024/02/17 04:02:39;;;;;;;0.40;0.40;;;;;;;4.64;100.00;101698.16;5059703;28;20044;-79
2024/02/17 04:05:07;;;;;;;1.45;1.38;;;;;;;4.96;100.00;101780.16;5063031;28;20047;-79
2024/02/17 04:07:34;;;;;;;1.63;1.52;;;;;;;4.41;100.00;101684.09;5064402;28;20040;-81
2024/02/17 04:09:59;;;;;;;2.83;2.70;;;;;;;4.81;100.00;101792.50;5056971;28;20058;-79
2024/02/17 04:12:25;;;;;;;1.90;1.45;;;;;;;4.13;100.00;101698.41;5049701;28;20036;-81
2024/02/17 04:14:51;;;;;;;0.50;0.50;;;;;;;4.43;100.00;101739.66;5061552;28;20020;-80
2024/02/17 04:17:17;;;;;;;0.73;0.73;;;;;;;4.18;100.00;101683.94;5059177;28;20127;-80
2024/02/17 04:19:42;;;;;;;4.72;4.47;;;;;;;5.11;100.00;101790.41;5053830;28;20037;-81
2024/02/17 04:22:08;;;;;;;0.50;0.50;;;;;;;4.37;100.00;101692.56;5058574;28;20442;-80
2024/02/17 04:24:33;;;;;;;0.40;0.40;;;;;;;5.00;100.00;101804.63;5055174;28;20149;-79
2024/02/17 04:26:59;;;;;;;0.90;0.90;;;;;;;5.00;100.00;101763.00;5063603;28;20543;-80
2024/02/17 04:29:26;;;;;;;0.88;0.85;;;;;;;4.35;100.00;101676.03;5056743;28;20449;-78
2024/02/17 04:31:51;;;;;;;10.20;8.00;;;;;;;4.96;100.00;101800.97;5056633;28;20045;-79
2024/02/17 04:34:17;;;;;;;0.47;0.47;;;;;;;5.10;100.00;101809.41;5056479;28;20118;-80
2024/02/17 04:36:42;;;;;;;0.65;0.65;;;;;;;4.68;100.00;101700.03;5058703;28;20151;-79
2024/02/17 04:39:11;;;;;;;3.72;3.38;;;;;;;5.04;100.00;101765.81;5059138;28;20058;-78
2024/02/17 04:41:36;;;;;;;1.85;1.75;;;;;;;5.27;100.00;101810.19;5056945;28;20044;-80
2024/02/17 04:44:02;;;;;;;25.60;8.48;;;;;;;5.26;100.00;101805.78;5058713;28;20048;-82
2024/02/17 04:46:29;;;;;;;5.97;5.63;;;;;;;4.91;100.00;101776.47;5057100;28;20052;-80
2024/02/17 04:48:55;;;;;;;0.30;0.30;;;;;;;4.84;100.00;101808.22;5058109;28;20147;-80
2024/02/17 04:51:20;;;;;;;0.30;0.30;;;;;;;4.36;100.00;101758.38;5057246;28;20519;-79
2024/02/17 04:53:46;;;;;;;2.10;2.00;;;;;;;4.93;100.00;101819.06;5061009;28;20067;-80
2024/02/17 04:56:11;;;;;;;0.68;0.68;;;;;;;4.40;100.00;101696.22;5053583;28;22183;-78
2024/02/17 04:58:37;;;;;;;6.22;3.80;;;;;;;4.71;100.00;101793.78;5053725;28;21120;-80
2024/02/17 05:01:03;;;;;;;2.05;1.95;;;;;;;4.17;100.00;101735.84;5051486;28;20048;-80
2024/02/17 05:03:30;;;;;;;22.77;13.20;;;;;;;4.43;100.00;101765.63;5057784;28;20028;-80
2024/02/17 05:05:55;;;;;;;0.65;0.65;;;;;;;4.79;100.00;101801.94;5056719;28;20050;-81
2024/02/17 05:08:21;;;;;;;2.38;2.17;;;;;;;4.16;100.00;101728.84;5056488;28;20559;-79
2024/02/17 05:10:46;;;;;;;2.10;1.95;;;;;;;4.82;100.00;101838.47;5056656;28;20037;-79
2024/02/17 05:13:12;;;;;;;7.35;6.93;;;;;;;3.96;100.00;101721.00;5058326;28;20049;-81
2024/02/17 05:15:37;;;;;;;0.63;0.60;;;;;;;3.95;100.00;101728.72;5057911;28;20098;-80
2024/02/17 05:18:03;;;;;;;0.73;0.73;;;;;;;4.60;100.00;101818.41;5059950;28;20024;-80
2024/02/17 05:20:29;;;;;;;6.00;3.28;;;;;;;5.06;100.00;101829.22;5059105;28;20136;-80
2024/02/17 05:22:55;;;;;;;13.30;10.55;;;;;;;3.93;100.00;101718.28;5054732;28;20045;-81
2024/02/17 05:25:22;;;;;;;1.38;1.27;;;;;;;4.49;100.00;101780.59;5059216;28;20122;-80
2024/02/17 05:27:48;;;;;;;6.07;3.45;;;;;;;4.80;100.00;101842.72;5056506;28;20174;-79
2024/02/17 05:30:15;;;;;;;1.45;1.35;;;;;;;4.34;100.00;101745.28;5054567;28;20024;-78
2024/02/17 05:32:40;;;;;;;0.35;0.35;;;;;;;3.95;100.00;101750.38;5056883;28;20048;-80
2024/02/17 05:35:06;;;;;;;3.58;3.28;;;;;;;3.73;100.00;101748.44;5066450;28;20492;-83
2024/02/17 05:37:32;;;;;;;8.85;8.10;;;;;;;4.32;100.00;101829.19;5061882;28;20068;-83
2024/02/17 05:40:00;;;;;;;7.68;7.22;;;;;;;4.45;100.00;101852.34;5052077;28;20036;-81
2024/02/17 05:42:25;;;;;;;1.30;1.20;;;;;;;4.58;100.00;101883.31;5057750;28;20412;-83
2024/02/17 05:44:51;;;;;;;1.25;1.20;;;;;;;4.82;100.00;101887.88;5058870;28;20032;-82
2024/02/17 05:47:16;;;;;;;0.75;0.50;;;;;;;5.07;100.00;101882.13;5057477;28;20681;-82
2024/02/17 05:49:45;;;;;;;9.60;9.02;;;;;;;3.82;100.00;101742.81;5058376;28;20045;-80
2024/02/17 05:52:12;;;;;;;2.47;2.38;;;;;;;4.44;100.00;101867.03;5061521;28;20875;-82
2024/02/17 05:54:38;;;;;;;0.40;0.40;;;;;;;4.20;100.00;101808.72;5064360;28;20052;-82
2024/02/17 05:57:05;;;;;;;1.50;1.40;;;;;;;4.98;100.00;101884.28;5061612;28;20032;-83
2024/02/17 05:59:30;;;;;;;2.38;2.28;;;;;;;4.57;100.00;101768.88;5057058;28;20052;-83
2024/02/17 06:01:56;;;;;;;5.70;1.95;;;;;;;5.20;100.00;101894.00;5062480;28;20766;-82
2024/02/17 06:04:22;;;;;;;6.43;5.88;;;;;;;4.58;100.00;101766.31;5057703;28;20155;-83
2024/02/17 06:06:48;;;;;;;1.45;1.35;;;;;;;4.58;100.00;101809.63;5060889;28;20123;-84
2024/02/17 06:09:13;;;;;;;0.30;0.30;;;;;;;4.88;100.00;101872.56;5061533;28;20072;-84
2024/02/17 06:11:39;;;;;;;1.33;1.25;;;;;;;4.85;100.00;101804.84;5055367;28;20477;-81
2024/02/17 06:14:04;;;;;;;4.28;4.07;;;;;;;5.03;100.00;101825.56;5057133;28;20089;-84
2024/02/17 06:16:30;;;;;;;1.17;1.17;;;;;;;5.32;100.00;101881.53;5063818;28;20127;-83
2024/02/17 06:21:40;;;;;;;3.33;3.13;;;;;;;5.04;100.00;101902.81;5063893;28;20088;-84
2024/02/17 06:24:05;;;;;;;2.25;2.15;;;;;;;4.23;100.00;101793.25;5066372;28;20037;-84
2024/02/17 06:26:32;;;;;;;2.78;1.40;;;;;;;4.46;100.00;101858.44;5054329;28;20047;-83
2024/02/17 06:29:03;;;;;;;1.95;1.85;;;;;;;4.39;100.00;101930.91;5063427;28;20116;-84
2024/02/17 06:31:29;;;;;;;5.70;5.38;;;;;;;3.58;100.00;101804.75;5055619;28;20143;-84
2024/02/17 06:33:55;;;;;;;0.63;0.63;;;;;;;4.27;100.00;101916.41;5059610;28;20048;-81
2024/02/17 06:36:21;;;;;;;5.28;4.75;;;;;;;4.35;100.00;101928.94;5057130;28;20033;-81
2024/02/17 06:38:50;;;;;;;2.80;2.70;;;;;;;4.30;100.00;101924.34;5061475;28;20115;-81
2024/02/17 06:41:16;;;;;;;5.13;4.82;;;;;;;4.72;100.00;101930.75;5060419;28;20093;-81
2024/02/17 06:43:41;;;;;;;0.52;0.52;;;;;;;4.25;100.00;101858.28;5058243;28;20052;-80
2024/02/17 06:46:07;;;;;;;10.00;9.35;;;;;;;4.74;100.00;101921.34;5058616;28;20041;-80
2024/02/17 06:48:34;;;;;;;3.80;3.60;;;;;;;4.92;100.00;101936.94;5063082;28;20162;-81
2024/02/17 06:50:59;;;;;;;1.10;1.08;;;;;;;4.57;100.00;101852.94;5062247;28;20044;-81
2024/02/17 06:53:25;;;;;;;1.77;1.67;;;;;;;4.94;100.00;101914.50;5054488;28;20052;-81
2024/02/17 06:55:50;;;;;;;0.98;0.98;;;;;;;4.26;100.00;101792.50;5055303;28;20464;-82
2024/02/17 06:58:17;;;;;;;2.65;2.55;;;;;;;4.93;100.00;101893.59;5051196;28;20040;-80
2024/02/17 07:00:43;;;;;;;1.42;1.33;;;;;;;4.31;100.00;101811.78;5061404;28;20044;-81
2024/02/17 07:03:09;;;;;;;0.60;0.57;;;;;;;4.50;100.00;101862.97;5059134;28;20043;-81
2024/02/17 07:05:35;;;;;;;5.30;1.88;;;;;;;4.18;100.00;101813.81;5059205;28;20057;-81
2024/02/17 07:08:02;;;;;;;2.35;2.25;;;;;;;4.37;100.00;101849.38;5055340;28;20126;-80
2024/02/17 07:10:28;;;;;;;4.68;4.43;;;;;;;4.98;100.00;101942.41;5053481;28;20315;-81
2024/02/17 07:12:54;;;;;;;3.22;3.08;;;;;;;4.32;100.00;101836.97;5062068;28;20459;-81
2024/02/17 07:15:20;;;;;;;0.85;0.85;;;;;;;4.11;100.00;101823.84;5057506;28;20098;-80
2024/02/17 07:17:47;;;;;;;0.73;0.70;;;;;;;4.77;100.00;101942.28;5067804;28;20412;-84
2024/02/17 07:20:13;;;;;;;28.05;6.22;;;;;;;4.84;100.00;101926.13;5064037;28;20080;-83
2024/02/17 07:22:39;;;;;;;1.27;1.17;;;;;;;5.02;100.00;101953.88;5057126;28;20800;-82
2024/02/17 07:25:05;;;;;;;8.60;7.13;;;;;;;5.02;100.00;101952.16;5058342;28;20056;-84
2024/02/17 07:27:30;;;;;;;0.35;0.35;;;;;;;4.48;100.00;101862.00;5060768;28;20075;-83
2024/02/17 07:29:56;;;;;;;1.52;1.42;;;;;;;4.21;100.00;101855.56;5057884;28;20036;-81
2024/02/17 07:32:23;;;;;;;4.03;3.83;;;;;;;4.05;100.00;101824.44;5061017;28;20053;-80
2024/02/17 07:34:50;;;;;;;2.75;2.65;;;;;;;4.37;100.00;101844.16;5054826;28;20053;-80
2024/02/17 07:37:18;;;;;;;1.10;0.50;;;;;;;4.87;100.00;101951.44;5052863;28;20045;-79
2024/02/17 07:39:44;;;;;;;0.30;0.30;;;;;;;4.43;100.00;101848.78;5063915;28;20539;-79
2024/02/17 07:42:11;;;;;;;0.40;0.40;;;;;;;4.90;100.00;101927.28;5061947;28;20045;-78
2024/02/17 07:44:37;;;;;;;0.30;0.30;;;;;;;5.06;100.00;101961.88;5062720;28;20048;-82
2024/02/17 07:47:03;;;;;;;2.17;2.08;;;;;;;4.92;100.00;101947.34;5061187;28;20060;-81
2024/02/17 07:49:29;;;;;;;9.05;8.40;;;;;;;4.82;100.00;101920.00;5061405;28;20052;-81
2024/02/17 07:51:54;;;;;;;2.35;2.25;;;;;;;4.62;100.00;101873.97;5054864;28;20129;-79
2024/02/17 07:54:20;;;;;;;1.42;1.42;;;;;;;4.79;100.00;101945.84;5064851;28;20056;-80
2024/02/17 07:56:46;;;;;;;0.75;0.75;;;;;;;4.34;100.00;101950.56;5057614;28;20040;-80
2024/02/17 07:59:12;;;;;;;8.02;7.45;;;;;;;4.59;100.00;101923.22;5058427;28;20455;-75
2024/02/17 08:01:38;;;;;;;7.93;7.50;;;;;;;4.73;100.00;101922.16;5064806;28;20120;-76
2024/02/17 08:04:03;;;;;;;7.50;7.05;;;;;;;4.81;100.00;101941.59;5053905;28;20029;-77
2024/02/17 08:06:29;;;;;;;3.08;2.83;;;;;;;4.42;100.00;101870.38;5065450;28;20025;-76
2024/02/17 08:08:55;;;;;;;2.83;2.63;;;;;;;4.95;100.00;101939.66;5066198;28;20033;-78
2024/02/17 08:11:20;;;;;;;1.63;1.52;;;;;;;4.82;100.00;101956.41;5055802;28;20048;-78
2024/02/17 08:13:46;;;;;;;5.63;5.15;;;;;;;4.33;100.00;101844.88;5053578;28;20408;-78
2024/02/17 08:16:14;;;;;;;5.88;5.57;;;;;;;4.89;100.00;101946.28;5057584;28;20087;-79
2024/02/17 08:18:42;;;;;;;3.97;3.78;;;;;;;4.52;100.00;101850.91;5063563;28;20068;-78
2024/02/17 08:21:08;;;;;;;1.48;1.38;;;;;;;4.53;100.00;101915.09;5062747;28;20025;-79
2024/02/17 08:23:34;;;;;;;13.15;12.30;;;;;;;4.71;100.00;101959.31;5079723;28;20156;-77
2024/02/17 08:26:00;;;;;;;0.70;0.70;;;;;;;4.71;100.00;101955.00;5054678;28;20120;-77
2024/02/17 08:28:29;;;;;;;2.30;2.20;;;;;;;4.77;100.00;101960.47;5059223;28;20044;-80
2024/02/17 08:30:54;;;;;;;4.25;3.92;;;;;;;4.41;100.00;101937.06;5058742;28;20047;-79
2024/02/17 08:33:20;;;;;;;0.40;0.40;;;;;;;4.40;100.00;101939.56;5059719;28;20052;-77
2024/02/17 08:35:49;;;;;;;0.95;0.77;;;;;;;4.47;100.00;101959.84;5062359;28;20035;-78
2024/02/17 08:38:16;;;;;;;24.45;4.70;;;;;;;4.24;100.00;101862.59;5045154;28;20045;-76
2024/02/17 08:40:42;;;;;;;12.45;11.60;;;;;;;4.52;100.00;101914.22;5058827;28;20048;-76
2024/02/17 08:43:08;;;;;;;4.55;2.25;;;;;;;4.95;100.00;101955.28;5062840;28;20032;-78
2024/02/17 08:45:34;;;;;;;0.20;0.20;;;;;;;5.03;100.00;101969.56;5062121;28;20098;-77
2024/02/17 08:48:00;;;;;;;1.77;1.67;;;;;;;4.31;100.00;101855.97;5057793;28;20406;-77
2024/02/17 08:50:26;;;;;;;0.30;0.30;;;;;;;4.73;100.00;101955.97;5055257;28;20683;-76
2024/02/17 08:52:52;;;;;;;0.50;0.50;;;;;;;4.76;100.00;101950.03;5059335;28;20126;-78
2024/02/17 08:55:18;;;;;;;5.95;5.50;;;;;;;4.73;100.00;101961.16;5060187;28;20109;-76
2024/02/17 08:57:43;;;;;;;25.67;10.35;;;;;;;4.60;100.00;101937.97;5060427;28;20045;-77
2024/02/17 09:00:10;;;;;;;3.95;3.63;;;;;;;4.77;100.00;101959.59;5061821;28;23611;-78
2024/02/17 09:02:37;;;;;;;1.20;0.88;;;;;;;4.74;100.00;101978.53;5055279;28;20764;-78
2024/02/17 09:05:05;;;;;;;0.93;0.93;;;;;;;4.77;100.00;101960.47;5060137;28;20051;-77
2024/02/17 09:07:30;;;;;;;1.48;1.38;;;;;;;4.50;100.00;101935.75;5061731;28;20125;-77
2024/02/17 09:09:56;;;;;;;1.05;0.95;;;;;;;3.93;100.00;101857.56;5062755;28;20045;-77
2024/02/17 09:12:22;;;;;;;2.78;2.65;;;;;;;4.65;100.00;101934.75;5054949;28;20033;-77
2024/02/17 09:14:49;;;;;;;35.92;31.42;;;;;;;4.99;100.00;101977.13;5059061;28;20041;-77
2024/02/17 09:17:16;;;;;;;6.85;4.05;;;;;;;4.58;100.00;101911.91;5058794;28;20075;-78
2024/02/17 09:19:42;;;;;;;0.28;0.28;;;;;;;4.99;100.00;101957.22;5061481;28;20048;-76
2024/02/17 09:22:08;;;;;;;4.65;4.32;;;;;;;4.98;100.00;101973.63;5063664;28;20044;-77
2024/02/17 09:24:33;;;;;;;5.18;4.82;;;;;;;4.65;100.00;101975.47;5065409;28;20407;-79
2024/02/17 09:27:04;;;;;;;1.30;1.25;;;;;;;4.59;100.00;101957.00;5061733;28;20112;-76
2024/02/17 09:29:31;;;;;;;8.40;7.53;;;;;;;4.86;100.00;101980.84;5061227;28;20052;-77
2024/02/17 09:31:57;;;;;;;7.13;6.43;;;;;;;4.88;100.00;101978.31;5064134;28;20070;-80
2024/02/17 09:34:29;;;;;;;2.33;2.17;;;;;;;4.34;100.00;101877.81;5077676;28;20281;-77
2024/02/17 09:36:55;;;;;;;4.00;3.63;;;;;;;4.50;100.00;101868.19;5074421;28;20056;-80
2024/02/17 09:39:21;;;;;;;1.60;1.50;;;;;;;4.49;100.00;101832.59;5073776;28;20039;-78
2024/02/17 09:41:46;;;;;;;0.50;0.50;;;;;;;5.07;100.00;101966.25;5063866;28;20485;-78
2024/02/17 09:44:13;;;;;;;0.82;0.82;;;;;;;5.34;100.00;101964.88;5057226;28;20060;-78
2024/02/17 09:46:39;;;;;;;0.45;0.45;;;;;;;4.98;100.00;101950.22;5063530;28;20360;-77
2024/02/17 09:49:06;;;;;;;1.73;1.63;;;;;;;4.51;100.00;101811.03;5059832;28;20048;-77
2024/02/17 09:51:33;;;;;;;0.43;0.43;;;;;;;5.27;100.00;101953.31;5059610;28;20056;-78
2024/02/17 09:53:59;;;;;;;2.60;0.63;;;;;;;5.33;100.00;101944.88;5062483;28;20078;-78
2024/02/17 09:56:25;;;;;;;11.00;8.95;;;;;;;5.49;100.00;101948.25;5058916;28;20048;-80
2024/02/17 09:58:51;;;;;;;7.22;3.22;;;;;;;5.05;100.00;101873.34;5062325;28;20071;-77
2024/02/17 10:01:19;;;;;;;10.68;10.05;;;;;;;5.27;100.00;101922.09;5060191;28;20601;-79
2024/02/17 10:03:45;;;;;;;1.27;1.23;;;;;;;5.33;100.00;101927.53;5067167;28;20398;-80
2024/02/17 10:06:15;;;;;;;0.30;0.30;;;;;;;5.44;100.00;101928.94;5056043;28;20028;-79
2024/02/17 10:08:42;;;;;;;18.33;16.95;;;;;;;3.65;100.00;101609.59;5050323;28;20049;-78
2024/02/17 10:11:11;;;;;;;3.22;3.05;;;;;;;5.45;100.00;101906.38;5055856;28;20049;-78
2024/02/17 10:13:41;;;;;;;0.35;0.35;;;;;;;5.45;100.00;101898.59;5058235;28;20512;-77
2024/02/17 10:16:12;;;;;;;2.20;2.10;;;;;;;5.10;100.00;101839.75;5063545;28;20047;-79
2024/02/17 10:18:42;;;;;;;1.15;1.15;;;;;;;5.42;100.00;101894.13;5054727;28;20052;-78
2024/02/17 10:21:11;;;;;;;9.23;8.70;;;;;;;5.57;100.00;101913.84;5056349;28;20032;-79
2024/02/17 10:23:38;;;;;;;12.05;9.73;;;;;;;5.04;100.00;101789.22;5062702;28;20069;-79
2024/02/17 10:26:05;;;;;;;4.57;1.95;;;;;;;5.84;100.00;101902.06;5060365;28;20076;-80
2024/02/17 10:28:30;;;;;;;0.40;0.40;;;;;;;5.97;100.00;101907.81;5059257;28;20376;-79
2024/02/17 10:30:57;;;;;;;0.30;0.30;;;;;;;5.41;100.00;101795.16;5055129;28;20044;-79
2024/02/17 10:33:24;;;;;;;1.25;1.15;;;;;;;5.98;100.00;101889.66;5053793;28;20069;-80
2024/02/17 10:35:50;;;;;;;0.70;0.70;;;;;;;6.10;100.00;101892.78;5057434;28;20041;-79
2024/02/17 10:38:16;;;;;;;1.65;1.55;;;;;;;5.86;100.00;101905.63;5056017;28;20175;-80
2024/02/17 10:40:42;;;;;;;2.17;2.08;;;;;;;5.65;100.00;101834.38;5064855;28;20558;-79
2024/02/17 10:43:07;;;;;;;4.22;3.80;;;;;;;5.49;100.00;101791.16;5067592;28;20713;-80
2024/02/17 10:45:33;;;;;;;3.47;3.22;;;;;;;5.81;100.00;101869.78;5062228;28;20464;-81
2024/02/17 10:48:04;;;;;;;2.53;2.38;;;;;;;5.89;100.00;101826.72;5058806;28;20266;-78
2024/02/17 10:50:32;;;;;;;0.98;0.95;;;;;;;6.38;100.00;101906.06;5057436;28;20102;-78
2024/02/17 10:53:04;;;;;;;1.48;1.20;;;;;;;6.41;100.00;101890.53;5056880;28;20048;-80
2024/02/17 10:55:36;;;;;;;2.60;2.38;;;;;;;5.73;100.00;101804.34;5055629;28;20076;-77
2024/02/17 10:58:15;;;;;;;3.70;3.15;;;;;;;6.15;100.00;101856.47;5055309;28;20056;-80
2024/02/17 11:00:48;;;;;;;3.65;1.30;;;;;;;6.25;100.00;101874.31;5056034;28;20040;-80
2024/02/17 11:03:19;;;;;;;0.55;0.55;;;;;;;5.82;100.00;101871.56;5058118;28;20746;-76
2024/02/17 11:05:49;;;;;;;0.40;0.40;;;;;;;6.24;100.00;101898.56;5056036;28;20191;-78
2024/02/17 11:08:15;;;;;;;6.70;6.22;;;;;;;5.47;100.00;101790.22;5056281;28;20057;-79
2024/02/17 11:10:44;;;;;;;11.55;10.55;;;;;;;6.35;100.00;101888.59;5061943;28;20385;-80
2024/02/17 11:13:35;;;;;;;4.30;4.03;;;;;;;6.31;100.00;101903.19;5057705;28;20056;-76
2024/02/17 11:16:03;;;;;;;2.20;2.08;;;;;;;6.18;100.00;101876.56;5054210;28;20055;-79
2024/02/17 11:18:39;;;;;;;4.85;4.47;;;;;;;5.53;100.00;101763.56;5064088;28;20054;-76
2024/02/17 11:21:07;;;;;;;2.47;2.38;;;;;;;6.17;100.00;101878.28;5064872;28;20101;-82
2024/02/17 11:23:44;;;;;;;3.78;3.55;;;;;;;6.24;100.00;101846.44;5066127;28;20080;-79